Time;durP1;ratioP1;P1;durP2;ratioP2;P2;SDS_P1;SDS_P2;PMS_P1;PMS_P2;Temp;Humidity;BMP_temperature;BMP_pressure;BME280_temperature;BME280_humidity;BME280_pressure;Samples;Min_cycle;Max_cycle;Signal;HPM_P1;HPM_P2
2023/06/24 00:02:16;;;;;;;10.10;8.00;;;16.80;99.90;;;;;;4998199;28;20955;-73
2023/06/24 00:04:43;;;;;;;12.20;8.03;;;16.80;99.90;;;;;;4990788;28;20463;-73
2023/06/24 00:07:10;;;;;;;14.23;8.00;;;16.80;99.90;;;;;;4990166;28;20865;-73
2023/06/24 00:09:37;;;;;;;10.47;8.17;;;16.70;99.90;;;;;;5003721;28;20460;-73
2023/06/24 00:12:04;;;;;;;10.57;7.93;;;16.70;99.90;;;;;;4992049;28;20777;-73
2023/06/24 00:14:31;;;;;;;10.40;7.73;;;16.60;99.90;;;;;;4996899;28;20549;-73
2023/06/24 00:16:58;;;;;;;10.67;7.83;;;16.60;99.90;;;;;;4990389;28;20497;-74
2023/06/24 00:19:27;;;;;;;9.67;7.33;;;16.60;99.90;;;;;;4990392;28;20473;-73
2023/06/24 00:21:54;;;;;;;9.40;7.93;;;16.60;99.90;;;;;;4990123;28;20426;-73
2023/06/24 00:24:25;;;;;;;9.50;8.20;;;16.50;99.90;;;;;;4990041;28;20445;-73
2023/06/24 00:26:52;;;;;;;8.90;7.90;;;16.50;99.90;;;;;;4994006;28;20554;-73
2023/06/24 00:29:18;;;;;;;10.80;8.13;;;16.50;99.90;;;;;;4989899;28;20528;-73
2023/06/24 00:31:45;;;;;;;9.93;7.77;;;16.40;99.90;;;;;;4993271;28;20488;-73
2023/06/24 00:34:12;;;;;;;9.90;8.30;;;16.30;99.90;;;;;;4989775;28;20479;-73
2023/06/24 00:36:40;;;;;;;8.30;7.50;;;16.30;99.90;;;;;;4990170;28;20533;-73
2023/06/24 00:39:07;;;;;;;11.53;8.10;;;16.20;99.90;;;;;;4989844;28;20981;-73
2023/06/24 00:41:35;;;;;;;11.07;8.10;;;16.10;99.90;;;;;;4989903;28;20451;-73
2023/06/24 00:44:03;;;;;;;8.17;7.33;;;16.10;99.90;;;;;;4990060;28;20457;-73
2023/06/24 00:46:31;;;;;;;8.80;8.00;;;16.00;99.90;;;;;;4989953;28;21010;-73
2023/06/24 00:49:00;;;;;;;8.20;7.40;;;16.00;99.90;;;;;;4989658;28;20935;-73
2023/06/24 00:51:30;;;;;;;12.30;8.40;;;16.00;99.90;;;;;;4999089;28;20440;-73
2023/06/24 00:53:58;;;;;;;8.40;7.50;;;16.00;99.90;;;;;;4993112;28;20483;-73
2023/06/24 00:56:29;;;;;;;8.60;7.20;;;16.00;99.90;;;;;;4993523;28;20513;-73
2023/06/24 00:58:56;;;;;;;8.50;7.30;;;15.90;99.90;;;;;;4989958;28;20426;-73
2023/06/24 01:01:23;;;;;;;11.37;8.47;;;15.90;99.90;;;;;;4994643;28;20455;-74
2023/06/24 01:03:50;;;;;;;9.57;8.33;;;15.90;99.90;;;;;;4996115;28;20957;-74
2023/06/24 01:06:18;;;;;;;12.80;8.00;;;15.90;99.90;;;;;;4990613;28;20503;-73
2023/06/24 01:08:50;;;;;;;13.73;8.90;;;15.80;99.90;;;;;;4998129;28;20502;-73
2023/06/24 01:11:19;;;;;;;9.53;8.33;;;15.80;99.90;;;;;;4993022;28;20441;-74
2023/06/24 01:13:45;;;;;;;13.70;8.53;;;15.80;99.90;;;;;;4993590;28;20457;-74
2023/06/24 01:16:24;;;;;;;11.07;8.57;;;15.80;99.90;;;;;;5001793;28;20428;-73
2023/06/24 01:18:58;;;;;;;9.77;8.20;;;15.70;99.90;;;;;;4994589;28;20521;-73
2023/06/24 01:21:43;;;;;;;14.20;8.93;;;15.70;99.90;;;;;;4993838;28;20455;-73
2023/06/24 01:24:32;;;;;;;10.27;8.40;;;15.60;99.90;;;;;;4999575;28;20570;-73
2023/06/24 01:27:20;;;;;;;12.90;7.97;;;15.60;99.90;;;;;;4993033;28;20937;-74
2023/06/24 01:30:21;;;;;;;12.20;8.67;;;15.60;99.90;;;;;;4995291;28;20484;-73
2023/06/24 01:32:53;;;;;;;10.33;8.43;;;15.50;99.90;;;;;;4983331;28;20458;-73
2023/06/24 01:35:24;;;;;;;10.63;8.37;;;15.50;99.90;;;;;;4993396;28;20472;-74
2023/06/24 01:37:52;;;;;;;11.00;8.97;;;15.50;99.90;;;;;;4993200;28;20432;-73
2023/06/24 01:40:23;;;;;;;12.83;8.43;;;15.60;99.90;;;;;;4992765;28;20454;-73
2023/06/24 01:42:51;;;;;;;13.87;8.50;;;15.60;99.90;;;;;;4992812;28;20961;-74
2023/06/24 01:45:22;;;;;;;13.30;8.47;;;15.60;99.90;;;;;;4993411;28;20509;-74
2023/06/24 01:47:58;;;;;;;9.50;8.50;;;15.50;99.90;;;;;;4993168;28;20433;-73
2023/06/24 01:50:27;;;;;;;10.90;8.53;;;15.40;99.90;;;;;;4997358;28;20468;-74
2023/06/24 01:52:56;;;;;;;9.23;8.33;;;15.30;99.90;;;;;;4996421;28;20500;-73
2023/06/24 01:55:24;;;;;;;10.00;9.00;;;15.30;99.90;;;;;;5006873;28;20472;-73
2023/06/24 01:57:52;;;;;;;12.23;8.80;;;15.30;99.90;;;;;;4992956;28;20457;-73
2023/06/24 02:00:19;;;;;;;14.17;9.30;;;15.20;99.90;;;;;;4996949;28;20425;-73
2023/06/24 02:02:47;;;;;;;10.73;8.73;;;15.20;99.90;;;;;;5000221;28;20511;-73
2023/06/24 02:05:16;;;;;;;14.10;8.97;;;15.30;99.90;;;;;;4992880;28;20652;-74
2023/06/24 02:07:44;;;;;;;10.03;8.53;;;15.30;99.90;;;;;;4995642;28;20429;-73
2023/06/24 02:10:11;;;;;;;9.67;8.30;;;15.30;99.90;;;;;;5001428;28;20490;-73
2023/06/24 02:12:39;;;;;;;11.63;8.70;;;15.30;99.90;;;;;;4992124;28;20974;-74
2023/06/24 02:15:08;;;;;;;19.90;9.47;;;15.20;99.90;;;;;;4992637;28;20433;-74
2023/06/24 02:17:37;;;;;;;12.73;9.03;;;15.20;99.90;;;;;;4992080;28;20926;-74
2023/06/24 02:20:06;;;;;;;9.93;8.90;;;15.30;99.90;;;;;;4999815;28;20504;-74
2023/06/24 02:22:35;;;;;;;9.20;8.13;;;15.30;99.90;;;;;;5000257;28;20455;-74
2023/06/24 02:25:03;;;;;;;11.20;9.00;;;15.20;99.90;;;;;;5000456;28;20508;-74
2023/06/24 02:27:31;;;;;;;8.90;7.93;;;15.20;99.90;;;;;;4996651;28;20721;-73
2023/06/24 02:29:59;;;;;;;10.13;8.17;;;15.20;99.90;;;;;;4991867;28;20496;-74
2023/06/24 02:32:26;;;;;;;10.40;7.70;;;15.20;99.90;;;;;;4992431;28;20434;-73
2023/06/24 02:34:53;;;;;;;8.60;7.67;;;15.10;99.90;;;;;;4992244;28;20421;-74
2023/06/24 02:37:19;;;;;;;8.50;7.70;;;15.10;99.90;;;;;;4992630;28;20429;-74
2023/06/24 02:39:47;;;;;;;11.13;8.00;;;15.10;99.90;;;;;;4997270;28;21198;-74
2023/06/24 02:42:14;;;;;;;11.17;8.17;;;15.10;99.90;;;;;;4991981;28;20455;-74
2023/06/24 02:44:41;;;;;;;10.47;8.23;;;15.10;99.90;;;;;;4992246;28;20496;-74
2023/06/24 02:47:11;;;;;;;9.47;7.20;;;15.10;99.90;;;;;;4991882;28;20451;-73
2023/06/24 02:49:39;;;;;;;10.93;7.23;;;15.00;99.90;;;;;;4991975;28;20524;-73
2023/06/24 02:52:06;;;;;;;8.57;7.67;;;15.00;99.90;;;;;;5003130;28;20433;-73
2023/06/24 02:54:34;;;;;;;9.00;7.40;;;15.00;99.90;;;;;;4998681;28;20540;-73
2023/06/24 02:57:02;;;;;;;8.43;7.00;;;14.90;99.90;;;;;;4991488;28;20818;-74
2023/06/24 02:59:29;;;;;;;7.77;7.07;;;14.90;99.90;;;;;;4991719;28;20426;-73
2023/06/24 03:01:56;;;;;;;8.73;7.83;;;14.90;99.90;;;;;;5002621;28;20459;-73
2023/06/24 03:04:23;;;;;;;14.53;7.80;;;14.90;99.90;;;;;;4991541;28;20442;-74
2023/06/24 03:06:50;;;;;;;11.23;7.50;;;14.90;99.90;;;;;;4992017;28;20463;-74
2023/06/24 03:09:18;;;;;;;9.27;7.60;;;14.90;99.90;;;;;;4996593;28;20540;-74
2023/06/24 03:11:45;;;;;;;14.00;7.57;;;14.80;99.90;;;;;;4997550;28;20453;-74
2023/06/24 03:14:13;;;;;;;12.97;7.60;;;14.80;99.90;;;;;;4991161;28;20454;-74
2023/06/24 03:16:40;;;;;;;13.00;8.23;;;14.80;99.90;;;;;;4994259;28;20529;-74
2023/06/24 03:19:07;;;;;;;10.57;8.20;;;14.80;99.90;;;;;;4997826;28;20434;-74
2023/06/24 03:21:34;;;;;;;9.80;7.83;;;14.80;99.90;;;;;;4991589;28;20435;-74
2023/06/24 03:24:00;;;;;;;10.00;8.23;;;14.80;99.90;;;;;;4999242;28;20500;-74
2023/06/24 03:26:32;;;;;;;9.10;8.10;;;14.80;99.90;;;;;;5002359;28;20438;-74
2023/06/24 03:28:59;;;;;;;14.10;8.03;;;14.80;99.90;;;;;;4990107;28;20469;-73
2023/06/24 03:31:27;;;;;;;12.67;8.60;;;14.80;99.90;;;;;;5001260;28;20522;-74
2023/06/24 03:33:54;;;;;;;11.53;8.03;;;14.80;99.90;;;;;;4994480;28;20445;-74
2023/06/24 03:36:21;;;;;;;12.30;8.13;;;14.70;99.90;;;;;;4991733;28;20571;-74
2023/06/24 03:38:47;;;;;;;8.87;7.63;;;14.60;99.90;;;;;;4991199;28;20429;-74
2023/06/24 03:41:14;;;;;;;15.60;8.67;;;14.50;99.90;;;;;;4990787;28;20447;-74
2023/06/24 03:43:41;;;;;;;9.50;8.40;;;14.50;99.90;;;;;;4990576;28;20869;-74
2023/06/24 03:46:08;;;;;;;12.90;8.70;;;14.60;99.90;;;;;;4995102;28;20441;-74
2023/06/24 03:48:36;;;;;;;14.47;8.20;;;14.60;99.90;;;;;;4990918;28;20430;-74
2023/06/24 03:51:03;;;;;;;13.80;8.40;;;14.60;99.90;;;;;;4997290;28;20469;-74
2023/06/24 03:53:29;;;;;;;9.17;8.20;;;14.70;99.90;;;;;;4990730;28;20501;-74
2023/06/24 03:55:56;;;;;;;11.23;8.60;;;14.70;99.90;;;;;;4990728;28;20514;-74
2023/06/24 03:58:23;;;;;;;12.70;8.40;;;14.70;99.90;;;;;;4996656;28;20824;-74
2023/06/24 04:00:50;;;;;;;17.60;8.60;;;14.60;99.90;;;;;;4997486;28;20429;-74
2023/06/24 04:03:17;;;;;;;9.23;8.17;;;14.60;99.90;;;;;;4997078;28;20477;-74
2023/06/24 04:05:45;;;;;;;11.77;9.40;;;14.50;99.90;;;;;;4991687;28;20433;-74
2023/06/24 04:08:12;;;;;;;10.87;9.50;;;14.50;99.90;;;;;;4997938;28;20500;-74
2023/06/24 04:10:39;;;;;;;18.73;9.87;;;14.50;99.90;;;;;;4989665;28;20490;-74
2023/06/24 04:13:05;;;;;;;14.70;10.17;;;14.40;99.90;;;;;;4990161;28;20477;-74
2023/06/24 04:15:32;;;;;;;12.23;10.63;;;14.30;99.90;;;;;;4990307;28;20868;-74
2023/06/24 04:17:59;;;;;;;14.93;10.03;;;14.30;99.90;;;;;;4990394;28;20510;-74
2023/06/24 04:20:26;;;;;;;17.37;10.57;;;14.30;99.90;;;;;;4990271;28;20478;-74
2023/06/24 04:22:54;;;;;;;16.97;10.80;;;14.30;99.90;;;;;;4994135;28;20470;-74
2023/06/24 04:25:21;;;;;;;15.20;10.33;;;14.30;99.90;;;;;;4990307;28;21037;-74
2023/06/24 04:27:47;;;;;;;14.63;10.77;;;14.40;99.90;;;;;;4991957;28;20455;-74
2023/06/24 04:30:14;;;;;;;12.43;11.13;;;14.30;99.90;;;;;;5000977;28;20568;-74
2023/06/24 04:32:41;;;;;;;13.53;11.40;;;14.30;99.90;;;;;;4993836;28;21063;-74
2023/06/24 04:35:08;;;;;;;19.70;11.20;;;14.40;99.90;;;;;;4989701;28;20993;-74
2023/06/24 04:37:35;;;;;;;17.23;11.90;;;14.40;99.90;;;;;;4989892;28;20451;-74
2023/06/24 04:40:03;;;;;;;12.47;10.70;;;14.40;99.90;;;;;;4990427;28;20448;-74
2023/06/24 04:42:30;;;;;;;17.70;11.70;;;14.50;99.90;;;;;;4991901;28;20870;-74
2023/06/24 04:44:56;;;;;;;14.37;11.00;;;14.60;99.90;;;;;;4994019;28;21008;-74
2023/06/24 04:47:23;;;;;;;11.97;9.57;;;14.70;99.90;;;;;;4990923;28;20476;-74
2023/06/24 04:49:50;;;;;;;14.83;10.97;;;14.90;99.90;;;;;;4994838;28;20541;-74
2023/06/24 04:52:17;;;;;;;15.60;11.20;;;14.90;99.90;;;;;;4989629;28;20517;-74
2023/06/24 04:54:44;;;;;;;11.73;10.37;;;15.00;99.90;;;;;;4992593;28;20462;-75
2023/06/24 04:57:24;;;;;;;8.63;7.73;;;15.20;99.90;;;;;;5000899;28;20450;-74
2023/06/24 04:59:51;;;;;;;9.27;8.37;;;15.40;99.90;;;;;;4989677;28;20521;-74
2023/06/24 05:02:17;;;;;;;10.20;7.73;;;15.90;99.90;;;;;;4994523;28;20425;-74
2023/06/24 05:04:47;;;;;;;11.10;8.43;;;16.30;99.90;;;;;;4989135;28;20914;-74
2023/06/24 05:07:14;;;;;;;11.40;7.60;;;16.70;99.90;;;;;;4990097;28;20429;-74
2023/06/24 05:09:41;;;;;;;9.90;8.30;;;17.00;99.90;;;;;;4995362;28;20496;-74
2023/06/24 05:12:08;;;;;;;8.43;7.17;;;17.20;99.90;;;;;;4988825;28;20429;-74
2023/06/24 05:14:37;;;;;;;8.73;7.63;;;17.40;99.90;;;;;;4989790;28;20454;-74
2023/06/24 05:17:04;;;;;;;11.40;8.50;;;17.70;99.90;;;;;;4989758;28;20437;-74
2023/06/24 05:19:31;;;;;;;11.93;9.03;;;17.90;99.90;;;;;;4994497;28;20455;-74
2023/06/24 05:21:57;;;;;;;17.93;8.10;;;17.70;99.90;;;;;;4996531;28;20525;-74
2023/06/24 05:24:24;;;;;;;11.93;9.57;;;17.50;99.90;;;;;;4989702;28;20483;-74
2023/06/24 05:26:52;;;;;;;10.60;8.70;;;17.60;99.90;;;;;;4989328;28;20872;-74
2023/06/24 05:29:19;;;;;;;11.10;8.13;;;17.80;99.90;;;;;;4989284;28;20513;-74
2023/06/24 05:31:47;;;;;;;10.83;7.43;;;17.90;99.90;;;;;;4998192;28;20471;-73
2023/06/24 05:34:13;;;;;;;9.63;8.13;;;18.00;99.90;;;;;;4989147;28;20481;-73
2023/06/24 05:36:40;;;;;;;17.17;9.23;;;18.00;99.90;;;;;;4989205;28;20426;-73
2023/06/24 05:39:07;;;;;;;9.70;8.70;;;18.10;99.90;;;;;;4989193;28;20455;-73
2023/06/24 05:41:34;;;;;;;12.83;9.90;;;18.10;99.90;;;;;;4989187;28;20934;-73
2023/06/24 05:44:05;;;;;;;11.77;8.33;;;18.10;99.90;;;;;;4988940;28;20876;-73
2023/06/24 05:46:32;;;;;;;14.37;10.77;;;18.10;99.90;;;;;;4997451;28;20459;-73
2023/06/24 05:49:00;;;;;;;13.70;10.43;;;18.20;99.90;;;;;;4999856;28;20509;-73
2023/06/24 05:51:27;;;;;;;12.07;10.80;;;18.10;99.90;;;;;;4989294;28;21098;-74
2023/06/24 05:53:53;;;;;;;18.30;10.50;;;17.90;99.90;;;;;;4991756;28;20454;-74
2023/06/24 05:56:21;;;;;;;13.93;12.40;;;18.00;99.90;;;;;;4996215;28;20458;-73
2023/06/24 05:58:48;;;;;;;16.33;11.80;;;18.00;99.90;;;;;;4993345;28;20467;-74
2023/06/24 06:01:14;;;;;;;15.83;13.10;;;17.90;99.90;;;;;;4996945;28;20504;-75
2023/06/24 06:03:41;;;;;;;19.00;12.97;;;18.00;99.90;;;;;;5003738;28;20529;-75
2023/06/24 06:06:09;;;;;;;13.17;11.77;;;18.00;99.90;;;;;;5002332;28;20468;-74
2023/06/24 06:08:36;;;;;;;17.30;11.57;;;17.90;99.90;;;;;;5009651;28;20428;-74
2023/06/24 06:11:02;;;;;;;17.47;12.63;;;17.90;99.90;;;;;;5012182;28;20460;-75
2023/06/24 06:13:29;;;;;;;14.27;12.23;;;18.00;99.90;;;;;;5003994;28;20532;-75
2023/06/24 06:15:56;;;;;;;16.60;11.80;;;18.00;99.90;;;;;;5000738;28;20445;-75
2023/06/24 06:18:23;;;;;;;18.87;12.90;;;18.00;99.90;;;;;;5010441;28;20525;-75
2023/06/24 06:20:49;;;;;;;18.03;12.97;;;18.10;99.90;;;;;;5011230;28;20804;-75
2023/06/24 06:23:17;;;;;;;17.47;12.07;;;18.30;99.90;;;;;;5010916;28;20474;-75
2023/06/24 06:25:44;;;;;;;14.60;12.77;;;18.40;99.90;;;;;;5003054;28;20517;-76
2023/06/24 06:28:11;;;;;;;12.27;10.60;;;18.60;99.90;;;;;;5011369;28;20940;-76
2023/06/24 06:30:37;;;;;;;12.90;10.80;;;18.70;99.90;;;;;;5005485;28;20998;-75
2023/06/24 06:33:04;;;;;;;16.50;11.20;;;18.90;99.90;;;;;;4996577;28;20480;-75
2023/06/24 06:35:31;;;;;;;15.00;11.03;;;19.20;99.90;;;;;;4997552;28;20585;-74
2023/06/24 06:37:58;;;;;;;13.03;11.00;;;19.30;99.90;;;;;;5004210;28;21260;-74
2023/06/24 06:40:28;;;;;;;13.33;10.30;;;19.50;99.90;;;;;;5000613;28;20450;-75
2023/06/24 06:42:54;;;;;;;14.10;10.90;;;19.70;99.90;;;;;;5009813;28;20559;-74
2023/06/24 06:45:21;;;;;;;13.43;9.50;;;19.90;99.90;;;;;;5010110;28;20429;-74
2023/06/24 06:47:49;;;;;;;11.67;9.50;;;20.00;99.90;;;;;;4998257;28;20456;-74
2023/06/24 06:50:16;;;;;;;11.83;9.47;;;20.00;99.90;;;;;;4998628;28;20583;-75
2023/06/24 06:52:42;;;;;;;11.60;10.13;;;20.10;99.90;;;;;;5010156;28;20556;-74
2023/06/24 06:55:10;;;;;;;13.33;9.60;;;20.00;99.90;;;;;;5011074;28;20446;-75
2023/06/24 06:57:38;;;;;;;12.23;10.40;;;20.20;99.90;;;;;;5004114;28;20446;-74
2023/06/24 07:00:06;;;;;;;10.77;9.40;;;20.30;99.90;;;;;;5011269;28;20458;-75
2023/06/24 07:02:33;;;;;;;15.87;10.87;;;20.50;99.90;;;;;;5008529;28;20429;-75
2023/06/24 07:05:00;;;;;;;13.43;10.80;;;20.50;99.90;;;;;;5009413;28;20508;-75
2023/06/24 07:07:27;;;;;;;15.70;10.60;;;20.60;99.90;;;;;;5011241;28;20447;-75
2023/06/24 07:09:53;;;;;;;15.80;11.13;;;20.60;99.90;;;;;;5001928;28;20454;-75
2023/06/24 07:12:20;;;;;;;15.70;11.30;;;20.60;99.90;;;;;;5003538;28;21175;-76
2023/06/24 07:14:48;;;;;;;17.60;11.47;;;20.80;99.90;;;;;;5011096;28;20450;-75
2023/06/24 07:17:15;;;;;;;14.73;10.30;;;21.10;99.90;;;;;;5009929;28;20520;-75
2023/06/24 07:19:42;;;;;;;13.10;11.60;;;21.30;99.90;;;;;;5008044;28;20463;-75
2023/06/24 07:22:08;;;;;;;11.43;10.23;;;21.50;99.90;;;;;;5007092;28;20523;-76
2023/06/24 07:24:35;;;;;;;12.80;9.60;;;21.70;99.90;;;;;;5001158;28;20471;-75
2023/06/24 07:27:03;;;;;;;13.67;9.67;;;22.00;99.90;;;;;;5005647;28;20454;-75
2023/06/24 07:29:29;;;;;;;11.20;10.10;;;22.00;99.90;;;;;;5001986;28;20459;-75
2023/06/24 07:31:57;;;;;;;10.70;9.60;;;22.00;99.90;;;;;;4963187;28;20567;-77
2023/06/24 07:34:24;;;;;;;14.03;10.40;;;22.30;99.90;;;;;;5007061;28;20478;-76
2023/06/24 07:36:51;;;;;;;15.20;10.50;;;22.30;99.90;;;;;;4998710;28;20738;-77
2023/06/24 07:39:17;;;;;;;15.60;9.97;;;22.30;99.90;;;;;;5003207;28;20458;-76
2023/06/24 07:41:44;;;;;;;12.60;9.67;;;22.40;99.90;;;;;;5004688;28;20931;-76
2023/06/24 07:44:11;;;;;;;17.77;10.43;;;22.40;99.90;;;;;;5000521;28;20479;-76
2023/06/24 07:46:37;;;;;;;12.40;9.20;;;22.30;99.90;;;;;;5004147;28;20524;-76
2023/06/24 07:49:05;;;;;;;10.60;9.40;;;22.50;99.90;;;;;;4993508;28;20506;-76
2023/06/24 07:51:34;;;;;;;10.73;9.60;;;22.50;99.90;;;;;;4999986;28;21086;-77
2023/06/24 07:54:01;;;;;;;12.60;10.40;;;22.50;99.90;;;;;;5000436;28;21243;-76
2023/06/24 07:56:28;;;;;;;10.50;8.90;;;22.50;99.90;;;;;;5003145;28;20463;-77
2023/06/24 07:58:54;;;;;;;11.13;8.70;;;22.60;99.90;;;;;;5004072;28;20454;-74
2023/06/24 08:01:21;;;;;;;12.23;9.37;;;22.80;99.90;;;;;;4998318;28;20521;-74
2023/06/24 08:03:47;;;;;;;9.97;8.77;;;22.90;99.90;;;;;;4996836;28;21231;-73
2023/06/24 08:06:15;;;;;;;12.50;8.50;;;22.80;99.90;;;;;;4996092;28;20505;-74
2023/06/24 08:08:42;;;;;;;13.33;8.40;;;23.00;99.90;;;;;;5001061;28;20451;-74
2023/06/24 08:11:09;;;;;;;10.43;8.87;;;23.30;99.90;;;;;;5003934;28;20584;-74
2023/06/24 08:13:35;;;;;;;12.20;8.60;;;23.40;99.90;;;;;;4993203;28;20470;-74
2023/06/24 08:16:02;;;;;;;11.30;8.70;;;23.50;99.90;;;;;;4995470;28;21013;-74
2023/06/24 08:18:29;;;;;;;12.23;8.97;;;23.70;99.90;;;;;;5002042;28;20481;-73
2023/06/24 08:20:55;;;;;;;13.27;8.90;;;23.80;99.90;;;;;;5005235;28;20449;-73
2023/06/24 08:23:23;;;;;;;9.90;8.50;;;24.00;99.90;;;;;;4999789;28;21061;-73
2023/06/24 08:25:50;;;;;;;13.37;9.30;;;24.20;99.90;;;;;;5003512;28;20995;-73
2023/06/24 08:28:17;;;;;;;12.23;9.10;;;24.20;99.90;;;;;;5002991;28;20459;-73
2023/06/24 08:30:43;;;;;;;11.70;9.17;;;24.20;99.90;;;;;;5003690;28;20482;-77
2023/06/24 08:33:10;;;;;;;12.63;8.20;;;24.30;99.90;;;;;;4996254;28;20509;-77
2023/06/24 08:35:37;;;;;;;12.47;8.60;;;24.30;99.90;;;;;;4997481;28;20454;-77
2023/06/24 08:38:04;;;;;;;11.10;8.90;;;24.40;99.90;;;;;;4999125;28;20463;-77
2023/06/24 08:40:32;;;;;;;9.60;7.95;;;24.60;99.90;;;;;;4996536;28;20459;-76
2023/06/24 08:42:59;;;;;;;11.57;8.70;;;24.60;99.90;;;;;;5005509;28;20778;-75
2023/06/24 08:45:25;;;;;;;9.00;7.80;;;24.70;99.90;;;;;;4996429;28;20470;-76
2023/06/24 08:47:55;;;;;;;17.13;8.13;;;25.20;99.90;;;;;;4999772;28;20505;-75
2023/06/24 08:50:28;;;;;;;13.67;8.70;;;25.60;99.90;;;;;;4993109;28;20967;-76
2023/06/24 08:52:55;;;;;;;9.27;7.67;;;25.60;99.90;;;;;;4994710;28;21182;-75
2023/06/24 08:55:24;;;;;;;10.57;8.10;;;25.60;99.90;;;;;;5002646;28;20954;-76
2023/06/24 08:57:52;;;;;;;12.47;8.33;;;25.90;99.90;;;;;;5003786;28;20457;-76
2023/06/24 09:00:19;;;;;;;8.37;7.33;;;26.10;99.90;;;;;;5006178;28;20458;-75
2023/06/24 09:02:45;;;;;;;12.13;7.57;;;26.10;99.90;;;;;;5002803;28;20517;-75
2023/06/24 09:05:12;;;;;;;11.40;7.07;;;26.10;99.90;;;;;;4998983;28;20459;-76
2023/06/24 09:07:39;;;;;;;11.83;8.23;;;25.90;99.90;;;;;;4999510;28;20947;-77
2023/06/24 09:10:06;;;;;;;7.97;6.30;;;25.80;99.90;;;;;;4996231;28;20954;-76
2023/06/24 09:12:33;;;;;;;12.00;8.57;;;25.90;99.90;;;;;;5005543;28;20495;-75
2023/06/24 09:15:03;;;;;;;11.47;7.10;;;26.10;99.90;;;;;;5002419;28;20955;-75
2023/06/24 09:17:29;;;;;;;9.83;8.07;;;26.20;99.90;;;;;;4995307;28;21059;-76
2023/06/24 09:20:05;;;;;;;9.93;7.40;;;26.30;99.90;;;;;;4998930;28;20521;-76
2023/06/24 09:22:32;;;;;;;8.30;7.17;;;26.50;99.90;;;;;;4999692;28;20459;-75
2023/06/24 09:25:02;;;;;;;9.90;7.50;;;26.50;99.90;;;;;;5001371;28;20454;-75
2023/06/24 09:27:32;;;;;;;7.80;6.43;;;26.80;99.90;;;;;;4992221;28;20455;-75
2023/06/24 09:29:59;;;;;;;8.70;6.43;;;26.80;99.90;;;;;;5001699;28;20997;-76
2023/06/24 09:32:30;;;;;;;7.80;6.50;;;27.10;99.90;;;;;;5006416;28;20486;-75
2023/06/24 09:34:57;;;;;;;6.50;5.43;;;27.10;99.90;;;;;;5010209;28;20450;-76
2023/06/24 09:37:24;;;;;;;8.70;5.33;;;27.10;99.90;;;;;;5009410;28;20453;-75
2023/06/24 09:39:50;;;;;;;11.80;6.30;;;27.40;99.90;;;;;;5003542;28;20467;-76
2023/06/24 09:42:22;;;;;;;6.40;5.60;;;27.60;99.90;;;;;;5003365;28;20526;-75
2023/06/24 09:44:54;;;;;;;5.80;5.23;;;27.70;99.90;;;;;;5005352;28;20919;-76
2023/06/24 09:47:24;;;;;;;6.50;5.97;;;27.80;99.90;;;;;;5004981;28;20955;-75
2023/06/24 09:49:52;;;;;;;7.00;6.30;;;27.90;99.90;;;;;;4993494;28;20470;-75
2023/06/24 09:52:20;;;;;;;10.20;6.80;;;28.20;99.90;;;;;;4996439;28;21272;-75
2023/06/24 09:54:50;;;;;;;6.93;5.90;;;28.20;99.90;;;;;;5003349;28;20455;-76
2023/06/24 09:57:20;;;;;;;6.47;5.23;;;28.30;99.90;;;;;;5008573;28;20485;-76
2023/06/24 09:59:47;;;;;;;8.10;6.27;;;28.40;99.90;;;;;;5000040;28;20459;-76
2023/06/24 10:02:16;;;;;;;6.27;5.63;;;28.40;99.90;;;;;;5001782;28;20472;-76
2023/06/24 10:04:44;;;;;;;8.90;6.10;;;28.20;99.90;;;;;;4998588;28;20486;-75
2023/06/24 10:07:12;;;;;;;10.70;6.80;;;28.20;99.90;;;;;;5000116;28;20455;-76
2023/06/24 10:09:39;;;;;;;8.67;6.67;;;28.30;99.90;;;;;;5004063;28;20461;-76
2023/06/24 10:12:07;;;;;;;6.53;5.83;;;28.20;99.90;;;;;;5007627;28;20486;-75
2023/06/24 10:14:33;;;;;;;9.33;6.20;;;28.40;99.90;;;;;;5008500;28;20986;-76
2023/06/24 10:17:04;;;;;;;6.47;5.33;;;28.50;99.90;;;;;;5006575;28;20455;-75
2023/06/24 10:19:30;;;;;;;7.27;6.40;;;28.60;99.90;;;;;;5004127;28;20492;-75
2023/06/24 10:21:59;;;;;;;7.00;5.80;;;28.80;99.90;;;;;;5005036;28;20516;-76
2023/06/24 10:24:31;;;;;;;10.00;6.23;;;29.00;99.90;;;;;;5002145;28;20693;-75
2023/06/24 10:27:03;;;;;;;7.50;5.93;;;29.20;99.90;;;;;;4997777;28;20632;-75
2023/06/24 10:29:33;;;;;;;7.20;5.73;;;29.10;99.90;;;;;;5002159;28;20459;-75
2023/06/24 10:32:05;;;;;;;8.13;6.60;;;29.00;99.90;;;;;;5003091;28;20505;-75
2023/06/24 10:34:39;;;;;;;7.33;6.00;;;29.00;99.90;;;;;;5006570;28;21019;-75
2023/06/24 10:37:11;;;;;;;6.93;5.83;;;28.60;99.90;;;;;;5004819;28;20819;-75
2023/06/24 10:39:54;;;;;;;13.33;6.37;;;27.90;99.90;;;;;;4996033;28;20894;-75
2023/06/24 10:42:34;;;;;;;7.23;5.90;;;27.40;99.90;;;;;;4999164;28;20542;-75
2023/06/24 10:45:03;;;;;;;9.50;6.50;;;27.30;99.90;;;;;;5003847;28;20462;-76
2023/06/24 10:47:31;;;;;;;8.20;6.60;;;27.60;99.90;;;;;;5008285;28;20516;-75
2023/06/24 10:49:57;;;;;;;8.80;6.70;;;27.60;99.90;;;;;;5010502;28;21046;-75
2023/06/24 10:52:24;;;;;;;9.30;7.60;;;27.50;99.90;;;;;;4995868;28;20493;-75
2023/06/24 10:54:53;;;;;;;7.00;6.03;;;27.40;99.90;;;;;;5004210;28;20457;-75
2023/06/24 10:57:24;;;;;;;10.20;5.93;;;27.40;99.90;;;;;;5002647;28;20485;-75
2023/06/24 10:59:52;;;;;;;8.00;5.90;;;28.00;99.90;;;;;;5003207;28;20970;-75
2023/06/24 11:02:20;;;;;;;7.67;6.50;;;28.30;99.90;;;;;;5004084;28;20539;-75
2023/06/24 11:04:48;;;;;;;19.97;6.60;;;28.00;99.90;;;;;;5002302;28;20466;-76
2023/06/24 11:07:15;;;;;;;9.57;6.97;;;27.80;99.90;;;;;;4999666;28;20500;-76
2023/06/24 11:09:42;;;;;;;11.00;5.97;;;27.60;99.90;;;;;;5004828;28;20947;-76
2023/06/24 11:12:11;;;;;;;7.50;6.40;;;27.70;99.90;;;;;;5008967;28;21012;-75
2023/06/24 11:14:39;;;;;;;7.17;6.00;;;27.60;99.90;;;;;;5004873;28;21118;-75
2023/06/24 11:17:06;;;;;;;7.20;6.50;;;27.50;99.90;;;;;;4999976;28;20528;-76
2023/06/24 11:19:35;;;;;;;6.97;5.23;;;27.30;99.90;;;;;;5004713;28;20516;-75
2023/06/24 11:22:03;;;;;;;9.50;5.70;;;27.60;99.90;;;;;;5006395;28;20493;-76
2023/06/24 11:24:30;;;;;;;7.43;5.90;;;28.00;99.90;;;;;;5004353;28;20528;-75
2023/06/24 11:26:57;;;;;;;7.30;6.20;;;28.10;99.90;;;;;;5003542;28;20458;-76
2023/06/24 11:29:29;;;;;;;10.63;4.80;;;27.90;99.90;;;;;;4996869;28;20506;-75
2023/06/24 11:31:55;;;;;;;11.27;5.80;;;28.00;99.90;;;;;;4997305;28;20486;-75
2023/06/24 11:34:22;;;;;;;5.90;5.20;;;27.90;99.90;;;;;;4999322;28;20483;-76
2023/06/24 11:36:49;;;;;;;9.57;6.93;;;27.90;99.90;;;;;;4994610;28;20451;-76
2023/06/24 11:39:23;;;;;;;6.97;6.27;;;27.70;99.90;;;;;;5003044;28;20459;-75
2023/06/24 11:41:50;;;;;;;10.80;6.13;;;27.70;99.90;;;;;;5000428;28;20542;-76
2023/06/24 11:44:19;;;;;;;10.90;5.97;;;27.70;99.90;;;;;;4993544;28;20478;-74
2023/06/24 11:46:47;;;;;;;9.50;6.30;;;27.60;99.90;;;;;;5004804;28;20456;-74
2023/06/24 11:49:14;;;;;;;12.83;5.67;;;27.60;99.90;;;;;;5009135;28;20454;-74
2023/06/24 11:51:48;;;;;;;11.10;5.87;;;27.90;99.90;;;;;;4998381;28;21029;-73
2023/06/24 11:54:17;;;;;;;6.93;5.83;;;28.30;99.90;;;;;;5009092;28;20497;-73
2023/06/24 11:56:45;;;;;;;7.40;5.40;;;28.90;99.90;;;;;;5007572;28;22291;-73
2023/06/24 11:59:20;;;;;;;7.67;5.90;;;29.20;99.90;;;;;;5009586;28;20544;-73
2023/06/24 12:01:53;;;;;;;7.20;5.97;;;28.80;99.90;;;;;;5005757;28;20963;-72
2023/06/24 12:04:21;;;;;;;15.70;6.80;;;28.40;99.90;;;;;;5005684;28;20970;-75
2023/06/24 12:06:48;;;;;;;7.70;5.67;;;28.10;99.90;;;;;;5006294;28;20494;-72
2023/06/24 12:09:15;;;;;;;7.33;5.57;;;28.20;99.90;;;;;;5001879;28;20446;-72
2023/06/24 12:11:42;;;;;;;7.80;4.97;;;28.10;99.90;;;;;;5009781;28;20954;-72
2023/06/24 12:14:09;;;;;;;6.57;5.68;;;28.20;99.90;;;;;;5009408;28;20447;-68
2023/06/24 12:16:35;;;;;;;9.68;5.13;;;28.30;99.90;;;;;;5004621;28;20443;-72
2023/06/24 12:19:03;;;;;;;5.57;5.07;;;28.40;99.90;;;;;;5003315;28;20270;-73
2023/06/24 12:21:30;;;;;;;6.17;5.10;;;28.40;99.90;;;;;;4998723;28;20459;-71
2023/06/24 12:23:56;;;;;;;6.30;5.30;;;28.60;99.90;;;;;;5000152;28;20520;-71
2023/06/24 12:26:23;;;;;;;7.63;5.30;;;28.70;99.90;;;;;;4997131;28;20815;-71
2023/06/24 12:28:50;;;;;;;5.97;5.40;;;28.80;99.90;;;;;;4998292;28;20493;-72
2023/06/24 12:31:16;;;;;;;6.70;5.20;;;28.70;99.90;;;;;;4995930;28;20451;-73
2023/06/24 12:33:43;;;;;;;6.03;5.47;;;28.60;99.90;;;;;;4996252;28;20499;-73
2023/06/24 12:36:11;;;;;;;7.00;5.53;;;28.40;99.90;;;;;;4997067;28;20501;-74
2023/06/24 12:38:37;;;;;;;9.23;6.20;;;28.20;99.90;;;;;;4994596;28;20537;-75
2023/06/24 12:41:05;;;;;;;6.47;5.77;;;27.90;99.90;;;;;;5006076;28;20454;-74
2023/06/24 12:43:31;;;;;;;5.20;4.70;;;27.80;99.90;;;;;;4991535;28;20448;-73